createdAt,value
2017-12-27T00:01:28.846Z,2.65
2017-12-27T00:06:33.516Z,4.78
2017-12-27T00:09:05.784Z,3.65
2017-12-27T00:11:38.333Z,6.00
2017-12-27T00:14:10.791Z,6.05
2017-12-27T00:16:44.007Z,3.80
2017-12-27T00:19:16.501Z,4.07
2017-12-27T00:21:49.007Z,6.15
2017-12-27T00:24:21.363Z,4.62
2017-12-27T00:26:54.717Z,4.72
2017-12-27T00:29:27.139Z,4.40
2017-12-27T00:31:53.448Z,4.62
2017-12-27T00:34:19.865Z,4.18
2017-12-27T00:36:46.254Z,4.47
2017-12-27T00:39:12.607Z,5.55
2017-12-27T00:41:39.731Z,3.58
2017-12-27T00:44:06.092Z,1.85
2017-12-27T00:46:32.446Z,4.30
2017-12-27T00:48:58.913Z,4.15
2017-12-27T00:51:25.232Z,4.75
2017-12-27T00:53:51.614Z,5.47
2017-12-27T00:56:18.664Z,6.68
2017-12-27T00:58:45.052Z,1.85
2017-12-27T01:01:11.444Z,9.00
2017-12-27T01:03:38.774Z,11.63
2017-12-27T01:06:05.158Z,4.78
2017-12-27T01:08:31.489Z,4.18
2017-12-27T01:10:57.825Z,12.32
2017-12-27T01:13:24.190Z,10.18
2017-12-27T01:15:50.619Z,7.15
2017-12-27T01:18:17.737Z,3.55
2017-12-27T01:20:44.103Z,3.80
2017-12-27T01:23:10.462Z,3.67
2017-12-27T01:25:36.794Z,4.30
2017-12-27T01:28:03.907Z,3.50
2017-12-27T01:30:30.309Z,6.30
2017-12-27T01:32:57.494Z,4.07
2017-12-27T01:35:23.824Z,7.47
2017-12-27T01:37:51.005Z,2.78
2017-12-27T01:40:17.417Z,3.08
2017-12-27T01:42:44.579Z,1.83
2017-12-27T01:45:11.723Z,4.85
2017-12-27T01:47:38.116Z,3.50
2017-12-27T01:50:04.516Z,3.55
2017-12-27T01:52:30.938Z,6.37
2017-12-27T01:54:58.070Z,3.40
2017-12-27T01:57:24.427Z,2.08
2017-12-27T01:59:50.787Z,3.33
2017-12-27T02:02:17.085Z,5.80
2017-12-27T02:04:44.165Z,3.12
2017-12-27T02:07:10.520Z,2.42
2017-12-27T02:09:36.850Z,2.40
2017-12-27T02:12:03.216Z,5.10
2017-12-27T02:14:29.572Z,3.78
2017-12-27T02:16:55.907Z,5.40
2017-12-27T02:19:22.675Z,4.80
2017-12-27T02:21:49.032Z,2.70
2017-12-27T02:24:16.110Z,5.85
2017-12-27T02:26:42.236Z,2.47
2017-12-27T02:29:09.107Z,1.85
2017-12-27T02:31:35.976Z,2.20
2017-12-27T02:34:02.850Z,1.70
2017-12-27T02:36:29.028Z,5.18
2017-12-27T02:38:55.210Z,1.67
2017-12-27T02:41:22.274Z,2.28
2017-12-27T02:43:48.690Z,2.17
2017-12-27T02:46:14.994Z,1.40
2017-12-27T02:48:41.338Z,3.60
2017-12-27T02:51:07.696Z,2.92
2017-12-27T02:53:34.062Z,2.53
2017-12-27T02:56:00.433Z,3.62
2017-12-27T02:58:26.866Z,2.08
2017-12-27T03:00:53.303Z,2.17
2017-12-27T03:03:19.705Z,3.35
2017-12-27T03:05:46.776Z,9.82
2017-12-27T03:08:13.668Z,3.92
2017-12-27T03:10:39.829Z,2.55
2017-12-27T03:13:06.177Z,2.30
2017-12-27T03:15:32.526Z,1.95
2017-12-27T03:18:00.312Z,2.37
2017-12-27T03:20:26.444Z,4.28
2017-12-27T03:22:52.616Z,3.25
2017-12-27T03:25:19.716Z,5.20
2017-12-27T03:27:46.081Z,2.55
2017-12-27T03:30:12.420Z,2.37
2017-12-27T03:32:38.864Z,2.55
2017-12-27T03:35:05.009Z,1.58
2017-12-27T03:37:31.203Z,3.00
2017-12-27T03:39:57.558Z,1.48
2017-12-27T03:42:24.881Z,2.45
2017-12-27T03:44:52.132Z,2.05
2017-12-27T03:47:19.253Z,2.17
2017-12-27T03:49:46.128Z,2.15
2017-12-27T03:52:13.406Z,4.20
2017-12-27T03:54:43.791Z,3.17
2017-12-27T03:57:10.002Z,3.17
2017-12-27T03:59:36.168Z,1.15
2017-12-27T04:02:02.344Z,1.20
2017-12-27T04:04:29.350Z,2.05
2017-12-27T04:06:55.508Z,3.00
2017-12-27T04:09:21.673Z,3.03
2017-12-27T04:11:47.824Z,1.45
2017-12-27T04:14:16.087Z,5.50
2017-12-27T04:16:42.213Z,1.60
2017-12-27T04:19:08.340Z,2.10
2017-12-27T04:21:35.207Z,1.42
2017-12-27T04:24:01.514Z,1.73
2017-12-27T04:26:28.742Z,1.40
2017-12-27T04:28:54.932Z,1.67
2017-12-27T04:31:21.075Z,1.02
2017-12-27T04:33:47.946Z,1.08
2017-12-27T04:36:14.227Z,1.42
2017-12-27T04:38:40.449Z,1.35
2017-12-27T04:41:07.363Z,1.62
2017-12-27T04:43:34.300Z,1.58
2017-12-27T04:46:00.540Z,3.80
2017-12-27T04:48:26.775Z,1.55
2017-12-27T04:50:52.968Z,3.55
2017-12-27T04:53:19.157Z,2.35
2017-12-27T04:55:46.068Z,3.62
2017-12-27T04:58:12.226Z,1.35
2017-12-27T05:00:39.126Z,3.58
2017-12-27T05:03:06.004Z,2.17
2017-12-27T05:05:32.172Z,1.48
2017-12-27T05:07:59.093Z,1.02
2017-12-27T05:10:26.022Z,1.77
2017-12-27T05:12:52.322Z,1.67
2017-12-27T05:15:19.263Z,1.70
2017-12-27T05:17:45.398Z,1.33
2017-12-27T05:20:12.276Z,3.70
2017-12-27T05:22:38.496Z,2.15
2017-12-27T05:25:04.691Z,3.47
2017-12-27T05:27:30.858Z,4.75
2017-12-27T05:29:57.060Z,4.00
2017-12-27T05:32:23.241Z,5.15
2017-12-27T05:34:50.132Z,2.60
2017-12-27T05:37:17.343Z,2.60
2017-12-27T05:39:43.739Z,1.75
2017-12-27T05:42:09.909Z,1.55
2017-12-27T05:44:36.025Z,2.53
2017-12-27T05:47:02.399Z,4.62
2017-12-27T05:49:29.475Z,1.60
2017-12-27T05:51:55.635Z,4.10
2017-12-27T05:54:22.515Z,1.23
2017-12-27T05:56:48.658Z,1.58
2017-12-27T05:59:14.779Z,2.05
2017-12-27T06:01:45.014Z,1.85
2017-12-27T06:04:11.224Z,1.62
2017-12-27T06:06:37.349Z,1.90
2017-12-27T06:09:03.472Z,1.67
2017-12-27T06:11:30.377Z,3.80
2017-12-27T06:13:56.508Z,2.67
2017-12-27T06:16:22.689Z,1.87
2017-12-27T06:18:48.905Z,3.15
2017-12-27T06:21:15.092Z,2.12
2017-12-27T06:23:41.325Z,1.17
2017-12-27T06:26:08.215Z,2.20
2017-12-27T06:28:35.126Z,2.25
2017-12-27T06:31:02.128Z,1.70
2017-12-27T06:33:29.007Z,2.60
2017-12-27T06:35:55.211Z,3.35
2017-12-27T06:38:22.088Z,1.52
2017-12-27T06:40:48.251Z,1.80
2017-12-27T06:43:14.381Z,1.98
2017-12-27T06:45:40.723Z,1.65
2017-12-27T06:48:06.878Z,1.50
2017-12-27T06:50:33.017Z,1.62
2017-12-27T06:52:59.156Z,2.78
2017-12-27T06:55:25.523Z,1.05
2017-12-27T06:57:51.664Z,1.30
2017-12-27T07:00:17.805Z,1.35
2017-12-27T07:02:43.935Z,1.75
2017-12-27T07:05:10.284Z,1.33
2017-12-27T07:07:36.628Z,1.40
2017-12-27T07:10:02.953Z,1.33
2017-12-27T07:12:29.309Z,1.62
2017-12-27T07:14:55.615Z,1.60
2017-12-27T07:17:22.698Z,2.58
2017-12-27T07:19:49.027Z,1.00
2017-12-27T07:22:15.347Z,0.90
2017-12-27T07:24:42.779Z,1.23
2017-12-27T07:27:12.134Z,1.42
2017-12-27T07:29:38.447Z,0.90
2017-12-27T07:32:04.815Z,1.75
2017-12-27T07:34:31.145Z,1.55
2017-12-27T07:36:57.499Z,1.25
2017-12-27T07:39:23.883Z,1.05
2017-12-27T07:41:50.260Z,1.30
2017-12-27T07:44:17.366Z,1.20
2017-12-27T07:46:45.412Z,1.30
2017-12-27T07:49:12.483Z,1.83
2017-12-27T07:51:38.884Z,2.22
2017-12-27T07:54:05.220Z,1.42
2017-12-27T07:56:32.304Z,1.25
2017-12-27T07:58:59.221Z,0.90
2017-12-27T08:01:25.392Z,4.07
2017-12-27T08:03:51.555Z,1.12
2017-12-27T08:06:18.448Z,0.80
2017-12-27T08:08:44.608Z,1.20
2017-12-27T08:11:10.979Z,0.90
2017-12-27T08:13:38.163Z,1.02
2017-12-27T08:16:05.059Z,1.27
2017-12-27T08:18:32.083Z,1.20
2017-12-27T08:20:58.979Z,1.20
2017-12-27T08:23:25.163Z,2.42
2017-12-27T08:25:51.403Z,1.60
2017-12-27T08:28:17.560Z,1.52
2017-12-27T08:30:44.464Z,1.80
2017-12-27T08:33:10.724Z,1.60
2017-12-27T08:35:36.960Z,2.15
2017-12-27T08:38:03.183Z,1.35
2017-12-27T08:40:29.692Z,1.50
2017-12-27T08:42:56.801Z,1.35
2017-12-27T08:45:22.991Z,1.92
2017-12-27T08:47:50.317Z,1.52
2017-12-27T08:50:16.473Z,1.62
2017-12-27T08:52:42.603Z,1.50
2017-12-27T08:55:09.748Z,1.60
2017-12-27T08:57:35.927Z,2.28
2017-12-27T09:00:02.467Z,1.80
2017-12-27T09:02:28.647Z,1.70
2017-12-27T09:04:54.801Z,1.73
2017-12-27T09:07:20.928Z,1.75
2017-12-27T09:09:47.293Z,1.48
2017-12-27T09:12:13.448Z,1.10
2017-12-27T09:14:39.880Z,1.30
2017-12-27T09:17:06.224Z,2.40
2017-12-27T09:19:32.679Z,1.05
2017-12-27T09:21:59.200Z,1.48
2017-12-27T09:24:25.571Z,1.40
2017-12-27T09:26:52.179Z,1.25
2017-12-27T09:29:18.507Z,1.17
2017-12-27T09:31:45.013Z,1.20
2017-12-27T09:34:11.327Z,0.90
2017-12-27T09:36:37.660Z,1.10
2017-12-27T09:39:03.972Z,3.67
2017-12-27T09:41:31.093Z,1.30
2017-12-27T09:43:57.435Z,0.90
2017-12-27T09:46:24.532Z,1.30
2017-12-27T09:48:50.948Z,1.20
2017-12-27T09:51:17.363Z,0.75
2017-12-27T09:53:43.715Z,0.80
2017-12-27T09:56:10.020Z,1.00
2017-12-27T09:58:36.511Z,2.65
2017-12-27T10:01:02.827Z,0.95
2017-12-27T10:03:29.913Z,1.80
2017-12-27T10:05:56.224Z,1.45
2017-12-27T10:08:22.551Z,1.20
2017-12-27T10:10:49.566Z,0.93
2017-12-27T10:13:16.663Z,0.95
2017-12-27T10:15:42.833Z,0.85
2017-12-27T10:18:09.049Z,1.15
2017-12-27T10:20:35.413Z,1.10
2017-12-27T10:23:01.834Z,1.25
2017-12-27T10:25:28.190Z,1.08
2017-12-27T10:27:54.510Z,1.02
2017-12-27T10:30:20.930Z,2.33
2017-12-27T10:32:47.263Z,0.70
2017-12-27T10:35:13.672Z,1.30
2017-12-27T10:37:40.043Z,0.70
2017-12-27T10:40:06.476Z,0.85
2017-12-27T10:42:32.853Z,0.95
2017-12-27T10:44:59.957Z,0.75
2017-12-27T10:47:27.028Z,0.93
2017-12-27T10:49:53.196Z,1.35
2017-12-27T10:52:19.381Z,0.95
2017-12-27T10:54:45.537Z,0.75
2017-12-27T10:57:12.567Z,0.75
2017-12-27T10:59:38.752Z,0.80
2017-12-27T11:02:04.929Z,1.60
2017-12-27T11:04:31.798Z,0.62
2017-12-27T11:06:58.688Z,0.80
2017-12-27T11:09:24.872Z,0.70
2017-12-27T11:11:51.752Z,0.85
2017-12-27T11:14:17.898Z,0.90
2017-12-27T11:16:44.041Z,0.93
2017-12-27T11:19:10.166Z,0.70
2017-12-27T11:21:37.104Z,1.75
2017-12-27T11:24:04.068Z,0.88
2017-12-27T11:26:30.973Z,0.70
2017-12-27T11:28:57.102Z,0.70
2017-12-27T11:31:23.226Z,0.70
2017-12-27T11:33:49.365Z,0.80
2017-12-27T11:36:15.577Z,0.82
2017-12-27T11:38:42.470Z,1.95
2017-12-27T11:41:08.648Z,0.93
2017-12-27T11:43:34.785Z,1.05
2017-12-27T11:46:01.239Z,1.42
2017-12-27T11:48:27.561Z,2.75
2017-12-27T11:50:53.793Z,1.42
2017-12-27T11:53:20.032Z,3.10
2017-12-27T11:55:46.176Z,1.80
2017-12-27T11:58:12.574Z,1.83
2017-12-27T12:00:38.957Z,0.82
2017-12-27T12:03:05.366Z,0.80
2017-12-27T12:05:32.463Z,1.25
2017-12-27T12:07:58.831Z,1.30
2017-12-27T12:10:26.540Z,1.15
2017-12-27T12:12:53.046Z,2.35
2017-12-27T12:15:24.460Z,0.88
2017-12-27T12:17:50.937Z,0.65
2017-12-27T12:20:17.376Z,0.80
2017-12-27T12:22:43.776Z,2.35
2017-12-27T12:25:10.176Z,5.50
2017-12-27T12:27:37.289Z,4.10
2017-12-27T12:30:03.623Z,0.95
2017-12-27T12:32:30.003Z,1.62
2017-12-27T12:34:57.208Z,2.78
2017-12-27T12:37:23.613Z,1.10
2017-12-27T12:39:49.966Z,1.05
2017-12-27T12:42:16.392Z,1.00
2017-12-27T12:44:42.740Z,0.95
2017-12-27T12:47:09.212Z,0.82
2017-12-27T12:49:35.599Z,0.82
2017-12-27T12:52:02.216Z,0.80
2017-12-27T12:54:29.360Z,1.17
2017-12-27T12:56:55.540Z,1.57
2017-12-27T12:59:21.790Z,1.17
2017-12-27T13:01:48.788Z,1.20
2017-12-27T13:04:15.045Z,1.37
2017-12-27T13:06:41.213Z,0.80
2017-12-27T13:09:07.383Z,1.87
2017-12-27T13:11:33.873Z,0.60
2017-12-27T13:14:00.140Z,1.13
2017-12-27T13:16:27.208Z,3.75
2017-12-27T13:18:54.344Z,2.10
2017-12-27T13:21:20.502Z,1.43
2017-12-27T13:23:46.632Z,0.80
2017-12-27T13:26:14.935Z,0.90
2017-12-27T13:28:41.264Z,1.03
2017-12-27T13:31:07.594Z,1.40
2017-12-27T13:33:33.975Z,0.70
2017-12-27T13:36:00.352Z,0.60
2017-12-27T13:38:27.447Z,1.10
2017-12-27T13:40:53.836Z,1.03
2017-12-27T13:43:22.012Z,1.10
2017-12-27T13:45:48.380Z,1.47
2017-12-27T13:48:15.477Z,0.90
2017-12-27T13:50:42.550Z,1.63
2017-12-27T13:53:08.864Z,1.10
2017-12-27T13:55:35.184Z,1.70
2017-12-27T13:58:07.471Z,0.90
2017-12-27T14:00:33.732Z,0.80
2017-12-27T14:02:59.860Z,0.90
2017-12-27T14:05:26.201Z,0.90
2017-12-27T14:07:52.401Z,1.70
2017-12-27T14:10:19.341Z,1.00
2017-12-27T14:12:45.464Z,1.80
2017-12-27T14:15:11.615Z,1.87
2017-12-27T14:17:40.597Z,1.30
2017-12-27T14:20:08.048Z,4.20
2017-12-27T14:22:35.120Z,3.22
2017-12-27T14:25:01.528Z,3.53
2017-12-27T14:27:28.029Z,6.97
2017-12-27T14:29:54.384Z,7.78
2017-12-27T14:32:20.724Z,5.25
2017-12-27T14:37:20.620Z,4.95
2017-12-27T14:39:47.520Z,6.25
2017-12-27T14:42:13.652Z,6.85
2017-12-27T14:44:39.814Z,2.05
2017-12-27T14:47:05.943Z,4.22
2017-12-27T14:49:38.563Z,2.37
2017-12-27T14:52:04.614Z,2.80
2017-12-27T14:54:30.664Z,2.40
2017-12-27T14:56:56.745Z,2.67
2017-12-27T14:59:23.531Z,3.47
2017-12-27T15:01:49.581Z,6.37
2017-12-27T15:04:15.618Z,4.47
2017-12-27T15:06:41.697Z,3.33
2017-12-27T15:09:07.747Z,5.25
2017-12-27T15:11:34.533Z,4.50
2017-12-27T15:14:00.652Z,3.65
2017-12-27T15:16:27.439Z,4.57
2017-12-27T15:18:53.480Z,3.90
2017-12-27T15:21:19.613Z,3.05
2017-12-27T15:23:45.736Z,3.30
2017-12-27T15:26:14.148Z,3.23
2017-12-27T15:28:40.209Z,4.03
2017-12-27T15:31:06.337Z,4.90
2017-12-27T15:33:33.518Z,3.78
2017-12-27T15:35:59.616Z,3.87
2017-12-27T15:38:25.822Z,3.93
2017-12-27T15:40:52.679Z,4.47
2017-12-27T15:43:18.774Z,2.62
2017-12-27T15:45:44.888Z,2.92
2017-12-27T15:48:10.989Z,2.60
2017-12-27T15:50:39.232Z,2.87
2017-12-27T15:53:05.397Z,3.00
2017-12-27T15:55:31.488Z,3.90
2017-12-27T15:57:59.152Z,4.10
2017-12-27T16:00:25.205Z,2.70
2017-12-27T16:02:51.269Z,3.97
2017-12-27T16:05:17.321Z,4.47
2017-12-27T16:07:43.387Z,3.33
2017-12-27T16:10:10.189Z,12.90
2017-12-27T16:12:37.003Z,13.38
2017-12-27T16:15:03.049Z,10.63
2017-12-27T16:17:29.179Z,13.15
2017-12-27T16:19:55.569Z,8.13
2017-12-27T16:22:21.843Z,12.57
2017-12-27T16:24:48.153Z,7.93
2017-12-27T16:27:14.415Z,10.18
2017-12-27T16:29:41.696Z,10.82
2017-12-27T16:32:08.727Z,10.05
2017-12-27T16:34:35.705Z,13.90
2017-12-27T16:37:01.944Z,9.63
2017-12-27T16:39:28.224Z,11.02
2017-12-27T16:41:54.464Z,8.98
2017-12-27T16:44:20.700Z,10.60
2017-12-27T16:46:47.827Z,9.05
2017-12-27T16:49:14.057Z,9.18
2017-12-27T16:51:40.309Z,8.93
2017-12-27T16:54:06.549Z,9.80
2017-12-27T16:56:33.018Z,8.07
2017-12-27T16:59:00.078Z,8.85
2017-12-27T17:01:26.347Z,9.43
2017-12-27T17:03:52.624Z,10.48
2017-12-27T17:06:18.869Z,11.52
2017-12-27T17:08:45.114Z,10.05
2017-12-27T17:11:11.346Z,8.55
2017-12-27T17:13:37.694Z,10.80
2017-12-27T17:16:03.939Z,7.95
2017-12-27T17:18:30.299Z,9.35
2017-12-27T17:20:57.284Z,7.78
2017-12-27T17:23:23.564Z,5.18
2017-12-27T17:25:49.817Z,5.62
2017-12-27T17:28:16.093Z,4.50
2017-12-27T17:30:44.198Z,7.53
2017-12-27T17:33:10.548Z,4.80
2017-12-27T17:35:36.779Z,5.00
2017-12-27T17:38:03.098Z,5.03
2017-12-27T17:40:30.069Z,27.90
2017-12-27T17:42:56.320Z,10.20
2017-12-27T17:45:23.313Z,27.40
2017-12-27T17:47:49.573Z,19.73
2017-12-27T17:50:15.918Z,8.25
2017-12-27T17:52:42.872Z,6.85
2017-12-27T17:55:09.091Z,8.77
2017-12-27T17:57:35.381Z,4.95
2017-12-27T18:00:01.705Z,7.00
2017-12-27T18:02:28.728Z,5.72
2017-12-27T18:04:54.964Z,5.32
2017-12-27T18:07:21.261Z,7.10
2017-12-27T18:09:47.502Z,8.30
2017-12-27T18:12:13.741Z,8.57
2017-12-27T18:14:39.988Z,7.50
2017-12-27T18:17:06.969Z,10.45
2017-12-27T18:19:33.933Z,10.13
2017-12-27T18:22:00.158Z,6.87
2017-12-27T18:24:26.481Z,5.75
2017-12-27T18:26:53.484Z,5.30
2017-12-27T18:29:19.896Z,8.45
2017-12-27T18:31:46.893Z,7.90
2017-12-27T18:34:13.137Z,8.25
2017-12-27T18:36:39.388Z,9.45
2017-12-27T18:39:05.609Z,9.88
2017-12-27T18:41:31.833Z,9.50
2017-12-27T18:43:58.061Z,8.40
2017-12-27T18:46:25.045Z,16.60
2017-12-27T18:48:51.335Z,11.80
2017-12-27T18:51:18.320Z,11.82
2017-12-27T18:53:44.562Z,7.90
2017-12-27T18:56:11.001Z,7.55
2017-12-27T18:58:38.053Z,9.40
2017-12-27T19:01:05.065Z,9.63
2017-12-27T19:03:32.169Z,6.30
2017-12-27T19:05:59.712Z,7.75
2017-12-27T19:08:26.730Z,6.00
2017-12-27T19:10:53.104Z,5.95
2017-12-27T19:13:19.359Z,6.50
2017-12-27T19:15:45.661Z,5.00
2017-12-27T19:18:11.932Z,5.20
2017-12-27T19:20:38.148Z,5.30
2017-12-27T19:23:04.420Z,5.37
2017-12-27T19:25:30.792Z,4.62
2017-12-27T19:27:57.089Z,8.02
2017-12-27T19:30:26.213Z,4.80
2017-12-27T19:32:54.653Z,4.10
2017-12-27T19:35:21.687Z,5.45
2017-12-27T19:37:47.948Z,6.30
2017-12-27T19:40:14.193Z,4.15
2017-12-27T19:42:40.444Z,6.18
2017-12-27T19:45:12.688Z,6.12
2017-12-27T19:47:38.925Z,5.65
2017-12-27T19:50:05.990Z,7.18
2017-12-27T19:52:32.278Z,5.07
2017-12-27T19:54:58.571Z,4.30
2017-12-27T19:57:24.825Z,3.50
2017-12-27T19:59:54.732Z,4.80
2017-12-27T20:02:21.000Z,6.68
2017-12-27T20:04:47.248Z,9.25
2017-12-27T20:07:13.505Z,7.32
2017-12-27T20:09:39.753Z,7.37
2017-12-27T20:12:06.050Z,6.47
2017-12-27T20:14:32.465Z,6.22
2017-12-27T20:17:04.161Z,8.77
2017-12-27T20:19:30.416Z,8.40
2017-12-27T20:21:56.649Z,6.50
2017-12-27T20:24:23.637Z,7.00
2017-12-27T20:26:49.896Z,7.85
2017-12-27T20:29:16.256Z,6.45
2017-12-27T20:31:43.008Z,10.18
2017-12-27T20:34:09.235Z,12.60
2017-12-27T20:36:35.508Z,11.27
2017-12-27T20:39:01.762Z,7.97
2017-12-27T20:41:28.047Z,10.45
2017-12-27T20:43:58.216Z,10.48
2017-12-27T20:46:25.316Z,10.18
2017-12-27T20:48:51.563Z,7.82
2017-12-27T20:51:17.830Z,9.35
2017-12-27T20:53:44.085Z,9.38
2017-12-27T20:56:10.334Z,8.15
2017-12-27T20:58:36.608Z,10.60
2017-12-27T21:01:02.997Z,12.55
2017-12-27T21:03:29.250Z,15.15
2017-12-27T21:05:56.557Z,14.65
2017-12-27T21:08:24.412Z,10.65
2017-12-27T21:10:50.755Z,8.10
2017-12-27T21:13:17.745Z,9.82
2017-12-27T21:15:44.784Z,11.02
2017-12-27T21:18:11.043Z,11.12
2017-12-27T21:20:38.033Z,15.82
2017-12-27T21:23:04.316Z,11.73
2017-12-27T21:25:31.402Z,13.48
2017-12-27T21:27:57.705Z,12.93
2017-12-27T21:30:24.687Z,14.25
2017-12-27T21:32:51.010Z,12.75
2017-12-27T21:35:17.245Z,10.20
2017-12-27T21:37:43.498Z,9.48
2017-12-27T21:40:09.845Z,8.45
2017-12-27T21:42:36.087Z,8.88
2017-12-27T21:45:03.107Z,11.43
2017-12-27T21:47:35.468Z,8.48
2017-12-27T21:50:01.994Z,5.75
2017-12-27T21:52:28.317Z,6.47
2017-12-27T21:54:54.589Z,5.22
2017-12-27T21:57:21.580Z,7.90
2017-12-27T21:59:53.957Z,6.95
2017-12-27T22:02:20.285Z,7.85
2017-12-27T22:04:46.640Z,6.05
2017-12-27T22:07:12.947Z,10.80
2017-12-27T22:09:39.931Z,6.10
2017-12-27T22:12:06.500Z,7.25
2017-12-27T22:14:32.776Z,7.93
2017-12-27T22:16:59.026Z,10.07
2017-12-27T22:19:25.269Z,6.68
2017-12-27T22:21:51.557Z,8.07
2017-12-27T22:24:17.828Z,8.75
2017-12-27T22:26:44.037Z,10.00
2017-12-27T22:29:16.173Z,15.30
2017-12-27T22:31:42.397Z,11.15
2017-12-27T22:34:08.673Z,9.30
2017-12-27T22:36:34.884Z,7.25
2017-12-27T22:39:01.177Z,6.32
2017-12-27T22:41:27.425Z,9.75
2017-12-27T22:43:53.741Z,11.25
2017-12-27T22:46:19.954Z,12.32
2017-12-27T22:48:46.941Z,10.43
2017-12-27T22:51:13.214Z,12.98
2017-12-27T22:53:39.540Z,14.07
2017-12-27T22:56:05.857Z,12.70
2017-12-27T22:58:32.845Z,21.20
2017-12-27T23:00:59.136Z,26.10
2017-12-27T23:03:25.437Z,16.98
2017-12-27T23:05:51.681Z,19.12
2017-12-27T23:08:17.936Z,20.25
2017-12-27T23:10:44.197Z,25.73
2017-12-27T23:13:10.450Z,27.55
2017-12-27T23:15:36.693Z,34.38
2017-12-27T23:18:02.917Z,29.98
2017-12-27T23:20:29.132Z,21.83
2017-12-27T23:22:55.317Z,16.65
2017-12-27T23:25:21.613Z,13.70
2017-12-27T23:27:47.928Z,10.70
2017-12-27T23:30:14.188Z,12.45
2017-12-27T23:32:40.410Z,10.20
2017-12-27T23:35:08.669Z,10.55
2017-12-27T23:37:35.374Z,7.87
2017-12-27T23:40:01.684Z,7.87
2017-12-27T23:42:28.652Z,8.32
2017-12-27T23:44:55.720Z,8.32
2017-12-27T23:47:22.701Z,6.12
2017-12-27T23:49:49.224Z,5.70
2017-12-27T23:52:15.561Z,5.62
2017-12-27T23:54:41.802Z,5.10
2017-12-27T23:57:08.121Z,4.47
2017-12-27T23:59:35.178Z,5.43
